createdAt,value
2017-06-22T00:00:45.727Z,0
2017-06-22T00:01:58.261Z,0
2017-06-22T00:03:10.793Z,0
2017-06-22T00:04:23.353Z,0
2017-06-22T00:05:35.582Z,0
2017-06-22T00:06:48.080Z,0
2017-06-22T00:08:00.601Z,0
2017-06-22T00:09:12.800Z,0
2017-06-22T00:10:25.340Z,0
2017-06-22T00:11:37.882Z,0
2017-06-22T00:12:50.136Z,0
2017-06-22T00:14:02.653Z,0
2017-06-22T00:15:15.152Z,0
2017-06-22T00:16:27.374Z,0
2017-06-22T00:17:39.911Z,0
2017-06-22T00:18:52.439Z,0
2017-06-22T00:20:04.682Z,0
2017-06-22T00:21:16.908Z,0
2017-06-22T00:22:29.142Z,0
2017-06-22T00:23:41.345Z,0
2017-06-22T00:24:54.169Z,0
2017-06-22T00:26:06.107Z,0
2017-06-22T00:27:18.653Z,0
2017-06-22T00:28:31.196Z,0
2017-06-22T00:29:43.716Z,0
2017-06-22T00:30:55.946Z,0
2017-06-22T00:32:08.444Z,0
2017-06-22T00:33:20.965Z,0
2017-06-22T00:34:33.184Z,0
2017-06-22T00:35:45.711Z,0
2017-06-22T00:36:57.930Z,0
2017-06-22T00:38:10.475Z,0
2017-06-22T00:39:23.013Z,0
2017-06-22T00:40:35.559Z,0
2017-06-22T00:41:47.808Z,0
2017-06-22T00:43:00.047Z,0
2017-06-22T00:44:12.018Z,0
2017-06-22T00:45:24.265Z,0
2017-06-22T00:46:36.817Z,0
2017-06-22T00:47:49.017Z,0
2017-06-22T00:49:01.538Z,0
2017-06-22T00:50:14.083Z,0
2017-06-22T00:51:26.577Z,0
2017-06-22T00:52:39.122Z,0
2017-06-22T00:53:51.368Z,0
2017-06-22T00:55:03.264Z,0
2017-06-22T00:56:15.502Z,0
2017-06-22T00:57:28.031Z,0
2017-06-22T00:58:40.572Z,0
2017-06-22T00:59:53.125Z,0
2017-06-22T01:01:05.649Z,0
2017-06-22T01:02:17.889Z,0
2017-06-22T01:03:30.113Z,0
2017-06-22T01:04:42.631Z,0
2017-06-22T01:05:55.170Z,0
2017-06-22T01:07:07.705Z,0
2017-06-22T01:08:20.519Z,0
2017-06-22T01:09:32.446Z,0
2017-06-22T01:10:44.981Z,0
2017-06-22T01:11:57.540Z,0
2017-06-22T01:13:10.098Z,0
2017-06-22T01:14:22.626Z,0
2017-06-22T01:15:35.125Z,0
2017-06-22T01:16:47.341Z,0
2017-06-22T01:17:59.859Z,0
2017-06-22T01:19:12.649Z,0
2017-06-22T01:20:25.171Z,0
2017-06-22T01:21:37.704Z,0
2017-06-22T01:22:50.245Z,0
2017-06-22T01:24:02.783Z,0
2017-06-22T01:25:15.308Z,0
2017-06-22T01:26:27.533Z,0
2017-06-22T01:27:40.053Z,0
2017-06-22T01:28:52.278Z,0
2017-06-22T01:30:04.500Z,0
2017-06-22T01:31:17.041Z,0
2017-06-22T01:32:29.266Z,0
2017-06-22T01:33:41.211Z,0
2017-06-22T01:34:53.751Z,0
2017-06-22T01:36:06.299Z,0
2017-06-22T01:37:18.542Z,0
2017-06-22T01:38:30.485Z,0
2017-06-22T01:39:42.988Z,0
2017-06-22T01:40:54.887Z,0
2017-06-22T01:42:07.404Z,0
2017-06-22T01:43:19.953Z,0
2017-06-22T01:44:32.172Z,0
2017-06-22T01:45:44.696Z,0
2017-06-22T01:46:56.934Z,0
2017-06-22T01:48:09.460Z,0
2017-06-22T01:49:21.710Z,0
2017-06-22T01:50:33.930Z,0
2017-06-22T01:51:46.764Z,0
2017-06-22T01:52:59.310Z,0
2017-06-22T01:54:11.242Z,0
2017-06-22T01:55:23.761Z,0
2017-06-22T01:56:36.285Z,0
2017-06-22T01:57:48.782Z,0
2017-06-22T01:59:01.343Z,0
2017-06-22T02:00:13.870Z,0
2017-06-22T02:01:26.435Z,0
2017-06-22T02:02:38.985Z,0
2017-06-22T02:03:51.510Z,0
2017-06-22T02:05:04.027Z,0
2017-06-22T02:06:16.552Z,0
2017-06-22T02:07:29.064Z,0
2017-06-22T02:08:40.994Z,0
2017-06-22T02:09:53.553Z,0
2017-06-22T02:11:06.084Z,0
2017-06-22T02:12:18.631Z,0
2017-06-22T02:13:31.162Z,0
2017-06-22T02:14:43.414Z,0
2017-06-22T02:15:55.965Z,0
2017-06-22T02:17:07.886Z,0
2017-06-22T02:18:20.386Z,0
2017-06-22T02:19:32.933Z,0
2017-06-22T02:20:45.179Z,0
2017-06-22T02:21:57.720Z,0
2017-06-22T02:23:10.259Z,0
2017-06-22T02:24:22.736Z,0
2017-06-22T02:25:35.233Z,0
2017-06-22T02:26:47.450Z,0
2017-06-22T02:27:59.975Z,0
2017-06-22T02:29:12.495Z,0
2017-06-22T02:30:25.063Z,0
2017-06-22T02:31:37.615Z,0
2017-06-22T02:32:49.533Z,0
2017-06-22T02:34:02.050Z,0
2017-06-22T02:35:14.575Z,0
2017-06-22T02:36:27.088Z,0
2017-06-22T02:37:39.364Z,5
2017-06-22T02:38:51.294Z,5
2017-06-22T02:40:03.812Z,5
2017-06-22T02:41:16.059Z,5
2017-06-22T02:42:27.980Z,5
2017-06-22T02:43:40.525Z,5
2017-06-22T02:44:53.042Z,5
2017-06-22T02:46:05.814Z,10
2017-06-22T02:47:18.341Z,10
2017-06-22T02:48:30.900Z,10
2017-06-22T02:49:43.121Z,10
2017-06-22T02:50:55.664Z,10
2017-06-22T02:52:08.193Z,10
2017-06-22T02:53:20.743Z,10
2017-06-22T02:54:33.265Z,10
2017-06-22T02:55:45.483Z,10
2017-06-22T02:56:58.019Z,15
2017-06-22T02:58:10.265Z,15
2017-06-22T02:59:22.793Z,15
2017-06-22T03:00:35.018Z,15
2017-06-22T03:01:46.938Z,15
2017-06-22T03:02:59.486Z,15
2017-06-22T03:04:11.727Z,20
2017-06-22T03:05:24.268Z,20
2017-06-22T03:06:36.494Z,20
2017-06-22T03:07:49.342Z,20
2017-06-22T03:09:01.840Z,20
2017-06-22T03:10:14.398Z,25
2017-06-22T03:11:26.931Z,25
2017-06-22T03:12:39.149Z,25
2017-06-22T03:13:51.672Z,25
2017-06-22T03:15:03.890Z,25
2017-06-22T03:16:16.407Z,30
2017-06-22T03:17:28.960Z,30
2017-06-22T03:18:41.756Z,30
2017-06-22T03:19:53.716Z,30
2017-06-22T03:21:06.219Z,35
2017-06-22T03:22:18.744Z,35
2017-06-22T03:23:31.279Z,35
2017-06-22T03:24:43.786Z,35
2017-06-22T03:25:56.303Z,40
2017-06-22T03:27:08.824Z,40
2017-06-22T03:28:21.345Z,40
2017-06-22T03:29:33.561Z,40
2017-06-22T03:30:45.821Z,45
2017-06-22T03:31:58.359Z,45
2017-06-22T03:33:10.858Z,45
2017-06-22T03:34:23.395Z,50
2017-06-22T03:35:35.623Z,50
2017-06-22T03:36:48.162Z,55
2017-06-22T03:38:00.680Z,60
2017-06-22T03:39:13.230Z,60
2017-06-22T03:40:25.759Z,65
2017-06-22T03:41:37.683Z,65
2017-06-22T03:42:50.214Z,70
2017-06-22T03:44:02.720Z,70
2017-06-22T03:45:15.266Z,70
2017-06-22T03:46:27.509Z,70
2017-06-22T03:47:39.732Z,75
2017-06-22T03:48:51.951Z,75
2017-06-22T03:50:04.475Z,75
2017-06-22T03:51:17.267Z,75
2017-06-22T03:52:29.767Z,75
2017-06-22T03:53:42.305Z,75
2017-06-22T03:54:54.858Z,80
2017-06-22T03:56:07.401Z,80
2017-06-22T03:57:19.903Z,80
2017-06-22T03:58:32.442Z,80
2017-06-22T03:59:44.681Z,85
2017-06-22T04:00:57.210Z,85
2017-06-22T04:02:09.676Z,85
2017-06-22T04:03:22.231Z,90
2017-06-22T04:04:34.140Z,90
2017-06-22T04:05:46.418Z,90
2017-06-22T04:06:58.943Z,90
2017-06-22T04:08:11.485Z,90
2017-06-22T04:09:24.025Z,95
2017-06-22T04:10:36.556Z,95
2017-06-22T04:11:48.798Z,95
2017-06-22T04:13:01.322Z,95
2017-06-22T04:14:13.843Z,95
2017-06-22T04:15:26.360Z,100
2017-06-22T04:16:38.302Z,100
2017-06-22T04:17:50.827Z,100
2017-06-22T04:19:03.379Z,100
2017-06-22T04:20:15.622Z,105
2017-06-22T04:21:28.140Z,105
2017-06-22T04:22:40.681Z,105
2017-06-22T04:23:52.319Z,110
2017-06-22T04:25:04.582Z,110
2017-06-22T04:26:17.098Z,110
2017-06-22T04:27:29.316Z,110
2017-06-22T04:28:41.244Z,110
2017-06-22T04:29:53.468Z,115
2017-06-22T04:31:06.027Z,115
2017-06-22T04:32:18.575Z,115
2017-06-22T04:33:31.101Z,115
2017-06-22T04:34:43.565Z,120
2017-06-22T04:35:55.816Z,120
2017-06-22T04:37:08.330Z,120
2017-06-22T04:38:20.562Z,125
2017-06-22T04:39:33.082Z,125
2017-06-22T04:40:45.300Z,125
2017-06-22T04:41:57.825Z,130
2017-06-22T04:43:10.363Z,130
2017-06-22T04:44:22.891Z,130
2017-06-22T04:45:35.387Z,130
2017-06-22T04:46:47.921Z,130
2017-06-22T04:48:00.443Z,135
2017-06-22T04:49:13.005Z,135
2017-06-22T04:50:25.544Z,135
2017-06-22T04:51:37.794Z,135
2017-06-22T04:52:50.009Z,140
2017-06-22T04:54:02.559Z,140
2017-06-22T04:55:14.204Z,140
2017-06-22T04:56:26.768Z,145
2017-06-22T04:57:38.993Z,145
2017-06-22T04:58:51.531Z,150
2017-06-22T05:00:03.766Z,150
2017-06-22T05:01:16.326Z,150
2017-06-22T05:02:28.844Z,150
2017-06-22T05:03:41.053Z,155
2017-06-22T05:04:53.272Z,160
2017-06-22T05:06:05.769Z,170
2017-06-22T05:07:18.310Z,185
2017-06-22T05:08:30.839Z,200
2017-06-22T05:09:43.351Z,215
2017-06-22T05:10:55.602Z,210
2017-06-22T05:12:07.847Z,220
2017-06-22T05:13:20.367Z,260
2017-06-22T05:14:32.331Z,250
2017-06-22T05:15:44.859Z,235
2017-06-22T05:16:57.405Z,250
2017-06-22T05:18:11.048Z,265
2017-06-22T05:19:23.279Z,300
2017-06-22T05:20:35.815Z,325
2017-06-22T05:21:48.036Z,330
2017-06-22T05:23:00.562Z,320
2017-06-22T05:24:13.081Z,285
2017-06-22T05:25:25.591Z,280
2017-06-22T05:26:37.197Z,380
2017-06-22T05:27:49.736Z,440
2017-06-22T05:29:01.968Z,430
2017-06-22T05:30:14.507Z,370
2017-06-22T05:31:27.031Z,390
2017-06-22T05:32:39.595Z,370
2017-06-22T05:33:51.516Z,285
2017-06-22T05:35:04.048Z,240
2017-06-22T05:36:16.587Z,215
2017-06-22T05:37:29.125Z,235
2017-06-22T05:38:41.671Z,255
2017-06-22T05:39:54.423Z,275
2017-06-22T05:41:06.688Z,305
2017-06-22T05:42:19.233Z,235
2017-06-22T05:43:31.762Z,220
2017-06-22T05:44:44.000Z,225
2017-06-22T05:45:56.254Z,225
2017-06-22T05:47:08.492Z,225
2017-06-22T05:48:20.998Z,225
2017-06-22T05:49:33.237Z,225
2017-06-22T05:50:45.791Z,230
2017-06-22T05:51:58.010Z,235
2017-06-22T05:53:10.530Z,240
2017-06-22T05:54:23.067Z,240
2017-06-22T05:55:35.297Z,235
2017-06-22T05:56:47.839Z,235
2017-06-22T05:57:59.758Z,245
2017-06-22T05:59:12.012Z,245
2017-06-22T06:00:24.587Z,260
2017-06-22T06:01:37.075Z,260
2017-06-22T06:02:49.575Z,265
2017-06-22T06:04:02.097Z,290
2017-06-22T06:05:14.656Z,295
2017-06-22T06:06:27.230Z,300
2017-06-22T06:07:39.458Z,315
2017-06-22T06:08:51.996Z,375
2017-06-22T06:10:04.514Z,405
2017-06-22T06:11:16.764Z,410
2017-06-22T06:12:29.317Z,475
2017-06-22T06:13:41.839Z,385
2017-06-22T06:14:54.048Z,385
2017-06-22T06:16:06.595Z,360
2017-06-22T06:17:19.390Z,370
2017-06-22T06:18:31.935Z,415
2017-06-22T06:19:44.461Z,595
2017-06-22T06:20:57.005Z,915
2017-06-22T06:22:09.223Z,875
2017-06-22T06:23:21.770Z,1000
2017-06-22T06:24:34.344Z,895
2017-06-22T06:25:46.889Z,975
2017-06-22T06:26:58.816Z,765
2017-06-22T06:28:11.365Z,925
2017-06-22T06:29:23.936Z,685
2017-06-22T06:30:35.869Z,710
2017-06-22T06:31:48.398Z,870
2017-06-22T06:33:00.940Z,895
2017-06-22T06:34:13.446Z,855
2017-06-22T06:35:25.961Z,660
2017-06-22T06:36:38.525Z,855
2017-06-22T06:37:51.028Z,985
2017-06-22T06:39:02.977Z,995
2017-06-22T06:40:15.516Z,1010
2017-06-22T06:41:28.057Z,1050
2017-06-22T06:42:40.308Z,1050
2017-06-22T06:43:52.842Z,1115
2017-06-22T06:45:05.079Z,1200
2017-06-22T06:46:17.642Z,1205
2017-06-22T06:47:29.873Z,1185
2017-06-22T06:48:42.416Z,1135
2017-06-22T06:49:54.966Z,990
2017-06-22T06:51:07.483Z,860
2017-06-22T06:52:19.703Z,945
2017-06-22T06:53:31.945Z,1090
2017-06-22T06:54:44.496Z,805
2017-06-22T06:55:56.720Z,650
2017-06-22T06:57:08.987Z,695
2017-06-22T06:58:21.509Z,825
2017-06-22T06:59:34.033Z,935
2017-06-22T07:00:46.293Z,1265
2017-06-22T07:01:58.539Z,1300
2017-06-22T07:03:10.470Z,1330
2017-06-22T07:04:22.417Z,1265
2017-06-22T07:05:34.963Z,1395
2017-06-22T07:06:47.223Z,1205
2017-06-22T07:07:59.768Z,880
2017-06-22T07:09:12.025Z,845
2017-06-22T07:10:24.576Z,780
2017-06-22T07:11:37.160Z,805
2017-06-22T07:12:49.114Z,770
2017-06-22T07:14:01.684Z,855
2017-06-22T07:15:13.927Z,875
2017-06-22T07:16:26.473Z,1150
2017-06-22T07:17:39.297Z,1175
2017-06-22T07:18:51.241Z,1215
2017-06-22T07:20:03.488Z,1090
2017-06-22T07:21:15.756Z,950
2017-06-22T07:22:27.694Z,990
2017-06-22T07:23:40.240Z,915
2017-06-22T07:24:52.486Z,720
2017-06-22T07:26:04.444Z,835
2017-06-22T07:27:16.385Z,935
2017-06-22T07:28:28.627Z,1175
2017-06-22T07:29:41.177Z,960
2017-06-22T07:30:53.721Z,1200
2017-06-22T07:32:05.986Z,1210
2017-06-22T07:33:18.536Z,1050
2017-06-22T07:34:31.103Z,710
2017-06-22T07:35:43.627Z,700
2017-06-22T07:36:56.195Z,730
2017-06-22T07:38:08.425Z,775
2017-06-22T07:39:21.219Z,785
2017-06-22T07:40:33.465Z,750
2017-06-22T07:41:45.415Z,745
2017-06-22T07:42:57.977Z,710
2017-06-22T07:44:09.903Z,785
2017-06-22T07:45:22.128Z,850
2017-06-22T07:46:34.091Z,1285
2017-06-22T07:47:46.636Z,1350
2017-06-22T07:48:58.891Z,1400
2017-06-22T07:50:10.838Z,1435
2017-06-22T07:51:23.095Z,1555
2017-06-22T07:52:35.628Z,1720
2017-06-22T07:53:47.591Z,1315
2017-06-22T07:55:00.121Z,900
2017-06-22T07:56:12.667Z,780
2017-06-22T07:57:25.211Z,750
2017-06-22T07:58:37.455Z,760
2017-06-22T07:59:49.400Z,765
2017-06-22T08:01:01.347Z,690
2017-06-22T08:02:13.898Z,620
2017-06-22T08:03:26.438Z,560
2017-06-22T08:04:38.662Z,555
2017-06-22T08:05:51.214Z,600
2017-06-22T08:07:03.779Z,620
2017-06-22T08:08:16.325Z,625
2017-06-22T08:09:28.895Z,645
2017-06-22T08:10:41.413Z,690
2017-06-22T08:11:53.963Z,725
2017-06-22T08:13:06.505Z,715
2017-06-22T08:14:18.756Z,650
2017-06-22T08:15:30.693Z,595
2017-06-22T08:16:42.968Z,580
2017-06-22T08:17:55.521Z,1260
2017-06-22T08:19:07.734Z,1205
2017-06-22T08:20:20.002Z,1850
2017-06-22T08:21:32.230Z,1970
2017-06-22T08:22:44.469Z,2085
2017-06-22T08:23:57.019Z,1965
2017-06-22T08:25:09.557Z,2070
2017-06-22T08:26:21.785Z,2150
2017-06-22T08:27:34.335Z,2055
2017-06-22T08:28:46.580Z,1615
2017-06-22T08:29:58.798Z,1540
2017-06-22T08:31:11.344Z,1740
2017-06-22T08:32:23.290Z,1910
2017-06-22T08:33:35.839Z,1725
2017-06-22T08:34:47.481Z,2090
2017-06-22T08:35:59.745Z,2035
2017-06-22T08:37:12.278Z,2015
2017-06-22T08:38:24.547Z,2040
2017-06-22T08:39:37.086Z,1840
2017-06-22T08:40:49.654Z,1900
2017-06-22T08:42:02.206Z,2025
2017-06-22T08:43:14.153Z,1595
2017-06-22T08:44:26.082Z,1450
2017-06-22T08:45:38.046Z,1815
2017-06-22T08:46:50.298Z,1465
2017-06-22T08:48:02.557Z,1845
2017-06-22T08:49:15.138Z,1640
2017-06-22T08:50:27.396Z,2080
2017-06-22T08:51:39.925Z,2330
2017-06-22T08:52:52.476Z,2565
2017-06-22T08:54:04.738Z,2445
2017-06-22T08:55:16.666Z,1860
2017-06-22T08:56:29.209Z,2555
2017-06-22T08:57:41.733Z,2435
2017-06-22T08:58:53.705Z,2295
2017-06-22T09:00:05.962Z,2520
2017-06-22T09:01:18.222Z,2630
2017-06-22T09:02:30.764Z,2745
2017-06-22T09:03:43.284Z,1450
2017-06-22T09:04:55.550Z,2670
2017-06-22T09:06:07.797Z,2675
2017-06-22T09:07:20.076Z,2570
2017-06-22T09:08:32.335Z,2840
2017-06-22T09:09:44.582Z,2755
2017-06-22T09:10:56.840Z,2735
2017-06-22T09:12:09.124Z,2730
2017-06-22T09:13:21.380Z,2795
2017-06-22T09:14:33.615Z,2655
2017-06-22T09:15:45.574Z,2760
2017-06-22T09:16:57.218Z,2765
2017-06-22T09:18:09.189Z,2630
2017-06-22T09:19:21.456Z,2490
2017-06-22T09:20:33.402Z,2270
2017-06-22T09:21:45.665Z,2310
2017-06-22T09:22:57.939Z,2345
2017-06-22T09:24:10.511Z,2380
2017-06-22T09:25:22.781Z,2430
2017-06-22T09:26:34.731Z,2560
2017-06-22T09:27:47.256Z,2625
2017-06-22T09:28:59.802Z,2410
2017-06-22T09:30:12.374Z,2620
2017-06-22T09:31:24.317Z,2940
2017-06-22T09:32:36.537Z,2810
2017-06-22T09:33:49.091Z,2385
2017-06-22T09:35:01.646Z,2455
2017-06-22T09:36:13.921Z,2460
2017-06-22T09:37:25.895Z,2545
2017-06-22T09:38:37.862Z,2815
2017-06-22T09:39:50.133Z,2870
2017-06-22T09:41:02.712Z,2570
2017-06-22T09:42:14.385Z,2800
2017-06-22T09:43:26.953Z,3065
2017-06-22T09:44:39.198Z,3040
2017-06-22T09:45:51.117Z,3050
2017-06-22T09:47:03.680Z,2780
2017-06-22T09:48:15.930Z,2615
2017-06-22T09:49:28.206Z,2565
2017-06-22T09:50:40.752Z,3180
2017-06-22T09:51:52.999Z,3455
2017-06-22T09:53:05.550Z,2785
2017-06-22T09:54:18.113Z,2765
2017-06-22T09:55:30.065Z,3195
2017-06-22T09:56:42.647Z,3075
2017-06-22T09:57:54.903Z,3005
2017-06-22T09:59:07.217Z,2830
2017-06-22T10:00:19.170Z,3160
2017-06-22T10:01:31.705Z,3115
2017-06-22T10:02:43.961Z,3230
2017-06-22T10:03:56.205Z,2850
2017-06-22T10:05:08.467Z,2725
2017-06-22T10:06:20.123Z,2640
2017-06-22T10:07:32.674Z,2525
2017-06-22T10:08:45.243Z,2555
2017-06-22T10:09:57.806Z,2475
2017-06-22T10:11:09.758Z,2220
2017-06-22T10:12:22.007Z,2595
2017-06-22T10:13:33.652Z,2900
2017-06-22T10:14:45.923Z,2930
2017-06-22T10:15:58.486Z,3165
2017-06-22T10:17:10.753Z,3110
2017-06-22T10:18:23.027Z,3340
2017-06-22T10:19:35.002Z,3355
2017-06-22T10:20:47.566Z,3570
2017-06-22T10:22:00.141Z,3540
2017-06-22T10:23:12.118Z,3485
2017-06-22T10:24:24.681Z,3510
2017-06-22T10:25:36.640Z,3380
2017-06-22T10:26:48.624Z,3160
2017-06-22T10:28:01.178Z,3055
2017-06-22T10:29:13.737Z,3055
2017-06-22T10:30:25.692Z,2940
2017-06-22T10:31:37.958Z,2835
2017-06-22T10:32:50.532Z,2865
2017-06-22T10:34:02.796Z,2920
2017-06-22T10:35:15.034Z,2960
2017-06-22T10:36:27.599Z,2895
2017-06-22T10:37:39.583Z,2885
2017-06-22T10:38:51.541Z,2710
2017-06-22T10:40:04.087Z,2625
2017-06-22T10:41:16.372Z,2515
2017-06-22T10:42:28.953Z,2320
2017-06-22T10:43:41.521Z,2370
2017-06-22T10:44:54.084Z,2250
2017-06-22T10:46:06.057Z,2215
2017-06-22T10:47:17.990Z,2160
2017-06-22T10:48:30.556Z,2030
2017-06-22T10:49:42.810Z,1945
2017-06-22T10:50:55.375Z,1910
2017-06-22T10:52:07.925Z,1815
2017-06-22T10:53:20.481Z,1725
2017-06-22T10:54:32.712Z,1640
2017-06-22T10:55:45.280Z,1575
2017-06-22T10:56:57.526Z,1515
2017-06-22T10:58:09.767Z,1430
2017-06-22T10:59:22.036Z,1340
2017-06-22T11:00:34.291Z,1240
2017-06-22T11:01:46.839Z,1150
2017-06-22T11:02:59.123Z,1080
2017-06-22T11:04:11.669Z,1025
2017-06-22T11:05:23.605Z,960
2017-06-22T11:06:36.213Z,925
2017-06-22T11:07:48.165Z,885
2017-06-22T11:09:00.414Z,855
2017-06-22T11:10:12.686Z,820
2017-06-22T11:11:25.268Z,770
2017-06-22T11:12:37.502Z,730
2017-06-22T11:13:50.074Z,690
2017-06-22T11:15:02.619Z,655
2017-06-22T11:16:15.186Z,610
2017-06-22T11:17:27.436Z,570
2017-06-22T11:18:39.997Z,540
2017-06-22T11:19:52.248Z,500
2017-06-22T11:21:04.486Z,470
2017-06-22T11:22:16.697Z,445
2017-06-22T11:23:28.967Z,415
2017-06-22T11:24:41.553Z,400
2017-06-22T11:25:53.803Z,375
2017-06-22T11:27:06.028Z,360
2017-06-22T11:28:18.247Z,350
2017-06-22T11:29:30.491Z,340
2017-06-22T11:30:43.037Z,340
2017-06-22T11:31:55.275Z,335
2017-06-22T11:33:07.834Z,325
2017-06-22T11:34:20.100Z,310
2017-06-22T11:35:32.037Z,300
2017-06-22T11:36:44.283Z,290
2017-06-22T11:37:56.504Z,270
2017-06-22T11:39:07.851Z,245
2017-06-22T11:40:20.408Z,220
2017-06-22T11:41:32.328Z,215
2017-06-22T11:42:44.901Z,210
2017-06-22T11:43:57.489Z,200
2017-06-22T11:45:09.730Z,195
2017-06-22T11:46:21.980Z,185
2017-06-22T11:47:34.557Z,175
2017-06-22T11:48:46.209Z,170
2017-06-22T11:49:58.451Z,160
2017-06-22T11:51:10.997Z,160
2017-06-22T11:52:22.967Z,160
2017-06-22T11:53:35.209Z,170
2017-06-22T11:54:47.783Z,170
2017-06-22T11:56:00.026Z,175
2017-06-22T11:57:12.272Z,170
2017-06-22T11:58:24.493Z,170
2017-06-22T11:59:37.038Z,165
2017-06-22T12:00:48.352Z,150
2017-06-22T12:02:00.556Z,135
2017-06-22T12:03:12.796Z,120
2017-06-22T12:04:24.448Z,120
2017-06-22T12:05:36.997Z,115
2017-06-22T12:06:49.536Z,105
2017-06-22T12:08:01.786Z,100
2017-06-22T12:09:13.740Z,95
2017-06-22T12:10:26.026Z,90
2017-06-22T12:11:38.279Z,80
2017-06-22T12:12:50.822Z,80
2017-06-22T12:14:02.764Z,80
2017-06-22T12:15:14.403Z,75
2017-06-22T12:16:26.632Z,75
2017-06-22T12:17:38.874Z,70
2017-06-22T12:18:51.149Z,65
2017-06-22T12:20:03.375Z,75
2017-06-22T12:21:15.918Z,85
2017-06-22T12:22:28.177Z,80
2017-06-22T12:23:39.824Z,75
2017-06-22T12:24:52.028Z,65
2017-06-22T12:26:04.549Z,65
2017-06-22T12:27:17.070Z,60
2017-06-22T12:28:29.619Z,60
2017-06-22T12:29:41.538Z,50
2017-06-22T12:30:53.783Z,50
2017-06-22T12:32:06.329Z,50
2017-06-22T12:33:18.849Z,50
2017-06-22T12:34:31.074Z,50
2017-06-22T12:35:43.319Z,45
2017-06-22T12:36:55.541Z,35
2017-06-22T12:38:07.804Z,25
2017-06-22T12:39:20.079Z,20
2017-06-22T12:40:32.325Z,15
2017-06-22T12:41:44.902Z,5
2017-06-22T12:42:56.842Z,5
2017-06-22T12:44:09.380Z,5
2017-06-22T12:45:21.913Z,5
2017-06-22T12:46:34.175Z,5
2017-06-22T12:47:46.725Z,10
2017-06-22T12:48:59.238Z,20
2017-06-22T12:50:11.520Z,25
2017-06-22T12:51:23.782Z,30
2017-06-22T12:52:36.312Z,25
2017-06-22T12:53:48.848Z,25
2017-06-22T12:55:01.077Z,20
2017-06-22T12:56:13.601Z,20
2017-06-22T12:57:26.161Z,20
2017-06-22T12:58:38.370Z,20
2017-06-22T12:59:50.962Z,20
2017-06-22T13:01:03.498Z,20
2017-06-22T13:02:16.003Z,15
2017-06-22T13:03:28.539Z,20
2017-06-22T13:04:41.072Z,20
2017-06-22T13:05:53.035Z,20
2017-06-22T13:07:05.589Z,25
2017-06-22T13:08:18.126Z,25
2017-06-22T13:09:30.351Z,25
2017-06-22T13:10:42.601Z,30
2017-06-22T13:11:54.820Z,30
2017-06-22T13:13:07.068Z,30
2017-06-22T13:14:19.004Z,30
2017-06-22T13:15:31.538Z,30
2017-06-22T13:16:44.105Z,30
2017-06-22T13:17:56.629Z,30
2017-06-22T13:19:08.586Z,30
2017-06-22T13:20:20.815Z,35
2017-06-22T13:21:33.013Z,35
2017-06-22T13:22:45.512Z,35
2017-06-22T13:23:58.074Z,35
2017-06-22T13:25:10.593Z,35
2017-06-22T13:26:22.798Z,35
2017-06-22T13:27:35.032Z,40
2017-06-22T13:28:46.969Z,40
2017-06-22T13:29:59.203Z,40
2017-06-22T13:31:11.771Z,40
2017-06-22T13:32:24.302Z,40
2017-06-22T13:33:36.823Z,45
2017-06-22T13:34:49.037Z,45
2017-06-22T13:36:01.562Z,45
2017-06-22T13:37:14.100Z,40
2017-06-22T13:38:26.325Z,40
2017-06-22T13:39:38.528Z,45
2017-06-22T13:40:50.764Z,45
2017-06-22T13:42:03.012Z,45
2017-06-22T13:43:14.968Z,45
2017-06-22T13:44:26.883Z,45
2017-06-22T13:45:39.421Z,45
2017-06-22T13:46:51.653Z,50
2017-06-22T13:48:03.902Z,50
2017-06-22T13:49:16.470Z,55
2017-06-22T13:50:28.688Z,60
2017-06-22T13:51:41.229Z,65
2017-06-22T13:52:53.759Z,70
2017-06-22T13:54:06.294Z,75
2017-06-22T13:55:18.830Z,80
2017-06-22T13:56:31.372Z,80
2017-06-22T13:57:43.939Z,80
2017-06-22T13:58:55.863Z,85
2017-06-22T14:00:08.084Z,90
2017-06-22T14:01:20.344Z,90
2017-06-22T14:02:32.850Z,95
2017-06-22T14:03:45.346Z,100
2017-06-22T14:04:57.545Z,105
2017-06-22T14:06:10.086Z,110
2017-06-22T14:07:22.010Z,115
2017-06-22T14:08:34.535Z,125
2017-06-22T14:09:46.472Z,135
2017-06-22T14:10:58.696Z,155
2017-06-22T14:12:10.932Z,170
2017-06-22T14:13:23.195Z,190
2017-06-22T14:14:35.409Z,220
2017-06-22T14:15:47.604Z,245
2017-06-22T14:16:59.825Z,275
2017-06-22T14:18:11.723Z,310
2017-06-22T14:19:24.265Z,345
2017-06-22T14:20:36.503Z,380
2017-06-22T14:21:49.050Z,420
2017-06-22T14:23:01.300Z,455
2017-06-22T14:24:13.542Z,500
2017-06-22T14:25:25.469Z,530
2017-06-22T14:26:37.694Z,565
2017-06-22T14:27:49.911Z,575
2017-06-22T14:29:02.125Z,580
2017-06-22T14:30:14.671Z,580
2017-06-22T14:31:27.174Z,570
2017-06-22T14:32:39.373Z,560
2017-06-22T14:33:51.633Z,545
2017-06-22T14:35:04.164Z,525
2017-06-22T14:36:16.684Z,515
2017-06-22T14:37:29.230Z,500
2017-06-22T14:38:41.775Z,490
2017-06-22T14:39:53.988Z,480
2017-06-22T14:41:06.517Z,475
2017-06-22T14:42:19.068Z,475
2017-06-22T14:43:31.338Z,480
2017-06-22T14:44:43.601Z,480
2017-06-22T14:45:55.552Z,485
2017-06-22T14:47:08.093Z,485
2017-06-22T14:48:20.319Z,490
2017-06-22T14:49:32.839Z,485
2017-06-22T14:50:45.390Z,480
2017-06-22T14:51:57.610Z,475
2017-06-22T14:53:10.159Z,480
2017-06-22T14:54:22.125Z,475
2017-06-22T14:55:34.398Z,480
2017-06-22T14:56:46.933Z,480
2017-06-22T14:57:59.177Z,480
2017-06-22T14:59:11.423Z,475
2017-06-22T15:00:23.953Z,465
2017-06-22T15:01:36.478Z,445
2017-06-22T15:02:48.722Z,425
2017-06-22T15:04:01.299Z,405
2017-06-22T15:05:13.256Z,390
2017-06-22T15:06:25.806Z,375
2017-06-22T15:07:37.445Z,360
2017-06-22T15:08:49.978Z,345
2017-06-22T15:10:02.500Z,340
2017-06-22T15:11:15.058Z,330
2017-06-22T15:12:27.590Z,320
2017-06-22T15:13:40.157Z,315
2017-06-22T15:14:52.679Z,310
2017-06-22T15:16:04.880Z,305
2017-06-22T15:17:17.436Z,300
2017-06-22T15:18:29.690Z,290
2017-06-22T15:19:42.239Z,280
2017-06-22T15:20:54.453Z,270
2017-06-22T15:22:06.979Z,260
2017-06-22T15:23:19.500Z,265
2017-06-22T15:24:31.749Z,255
2017-06-22T15:25:44.311Z,255
2017-06-22T15:26:56.854Z,255
2017-06-22T15:28:09.378Z,255
2017-06-22T15:29:21.884Z,255
2017-06-22T15:30:34.154Z,250
2017-06-22T15:31:46.696Z,240
2017-06-22T15:32:59.217Z,230
2017-06-22T15:34:11.740Z,225
2017-06-22T15:35:24.258Z,220
2017-06-22T15:36:36.197Z,220
2017-06-22T15:37:48.426Z,215
2017-06-22T15:39:00.950Z,215
2017-06-22T15:40:13.195Z,220
2017-06-22T15:41:25.463Z,220
2017-06-22T15:42:37.960Z,220
2017-06-22T15:43:49.901Z,220
2017-06-22T15:45:02.470Z,220
2017-06-22T15:46:14.714Z,220
2017-06-22T15:47:27.246Z,225
2017-06-22T15:48:39.466Z,225
2017-06-22T15:49:52.013Z,230
2017-06-22T15:51:04.559Z,240
2017-06-22T15:52:17.129Z,250
2017-06-22T15:53:29.671Z,260
2017-06-22T15:54:41.321Z,265
2017-06-22T15:55:53.560Z,280
2017-06-22T15:57:05.810Z,295
2017-06-22T15:58:18.601Z,310
2017-06-22T15:59:30.531Z,325
2017-06-22T16:00:43.090Z,345
2017-06-22T16:01:55.610Z,365
2017-06-22T16:03:07.856Z,380
2017-06-22T16:04:20.402Z,395
2017-06-22T16:05:32.331Z,400
2017-06-22T16:06:44.545Z,405
2017-06-22T16:07:56.490Z,400
2017-06-22T16:09:09.005Z,405
2017-06-22T16:10:21.532Z,390
2017-06-22T16:11:33.781Z,380
2017-06-22T16:12:46.324Z,370
2017-06-22T16:13:58.570Z,360
2017-06-22T16:15:11.099Z,350
2017-06-22T16:16:23.324Z,345
2017-06-22T16:17:35.574Z,340
2017-06-22T16:18:47.531Z,345
2017-06-22T16:19:59.474Z,340
2017-06-22T16:21:11.423Z,335
2017-06-22T16:22:23.978Z,335
2017-06-22T16:23:36.223Z,330
2017-06-22T16:24:48.143Z,330
2017-06-22T16:26:00.692Z,325
2017-06-22T16:27:12.638Z,325
2017-06-22T16:28:25.181Z,320
2017-06-22T16:29:37.144Z,320
2017-06-22T16:30:49.963Z,320
2017-06-22T16:32:02.495Z,315
2017-06-22T16:33:15.036Z,315
2017-06-22T16:34:27.286Z,310
2017-06-22T16:35:39.478Z,305
2017-06-22T16:36:51.429Z,300
2017-06-22T16:38:03.995Z,300
2017-06-22T16:39:16.210Z,300
2017-06-22T16:40:28.742Z,290
2017-06-22T16:41:41.300Z,290
2017-06-22T16:42:53.539Z,285
2017-06-22T16:44:06.078Z,280
2017-06-22T16:45:18.614Z,275
2017-06-22T16:46:30.867Z,270
2017-06-22T16:47:43.109Z,270